createdAt,value
2018-05-04T19:50:00.308Z,25.2
2018-05-04T19:55:00.290Z,23.9
2018-05-04T20:00:00.317Z,21.0
2018-05-04T20:05:00.282Z,17.0
2018-05-04T20:10:00.381Z,16.4
2018-05-04T20:15:00.255Z,14.3
2018-05-04T20:20:00.324Z,13.8
2018-05-04T20:35:00.557Z,8.0
2018-05-04T20:40:00.573Z,11.3
2018-05-04T20:45:00.573Z,11.9
2018-05-04T20:50:00.567Z,11.3
2018-05-04T20:55:00.554Z,10.8
2018-05-04T21:00:00.573Z,11.5
2018-05-04T21:05:00.573Z,10.7
2018-05-04T21:10:00.635Z,9.9
2018-05-04T21:15:00.566Z,10.8
2018-05-04T21:20:00.828Z,11.5
2018-05-04T21:25:00.573Z,11.6
2018-05-04T21:30:00.671Z,12.6
2018-05-04T21:35:00.544Z,13.2
2018-05-04T21:40:00.643Z,12.7
2018-05-04T21:45:00.581Z,12.4
2018-05-04T21:50:00.571Z,12.6
2018-05-04T21:55:00.584Z,11.5
2018-05-04T22:00:00.590Z,11.5
2018-05-04T22:05:00.552Z,11.9
2018-05-04T22:10:00.556Z,12.3
2018-05-04T22:15:00.713Z,12.8
2018-05-04T22:20:00.583Z,13.5
2018-05-04T22:25:00.554Z,13.1
2018-05-04T22:30:00.713Z,12.5
2018-05-04T22:35:00.581Z,12.7
2018-05-04T22:40:00.686Z,12.2
2018-05-04T22:45:00.583Z,11.9
2018-05-04T22:50:00.621Z,12.8
2018-05-04T22:55:00.588Z,13.5
2018-05-04T23:00:00.632Z,14.0
2018-05-04T23:10:00.700Z,14.3
2018-05-04T23:15:00.590Z,15.5
2018-05-04T23:20:00.634Z,15.9
2018-05-04T23:25:00.603Z,15.6
2018-05-04T23:30:00.732Z,15.8
2018-05-04T23:40:00.701Z,14.6
2018-05-04T23:45:00.577Z,15.0
2018-05-04T23:50:00.637Z,14.9
2018-05-04T23:55:00.600Z,14.8
